Houthalen, Belgium
Current Conditions -  °F | °C
As of 11:55 AM on Monday 22 Dec 2014 (Local Time) from EBBL Reporting Station
Drizzle Drizzle  
Wind Chill: 41°   Ceiling: 900
Heat Index: 48°   Visibility: 6mi
Dew Point: 45°   Wind: 21mph
Humidity: 87%   Direction: 220°SW
Pressure: 30.12"   Gusts: NA
Location:  51.03°N, 5.37°E
Report Text: EBBL 221055Z 22018KT 9999 -DZ FEW007 OVC009 09/07 Q1020 GRN GRN TEMPO YLO
Loading
Personal Weather Stations






























Interactive Weather Map New forecast layout! Learn more

10-Day Weather Forecast

Advertisements
Track Severe Weather on mobile